Time;durP1;ratioP1;P1;durP2;ratioP2;P2;SDS_P1;SDS_P2;PMS_P1;PMS_P2;Temp;Humidity;BMP_temperature;BMP_pressure;BME280_temperature;BME280_humidity;BME280_pressure;Samples;Min_cycle;Max_cycle;Signal;HPM_P1;HPM_P2
2023/07/07 00:00:51;;;;;;;3.72;2.03;;;;;;;22.35;41.65;101633.84;4937378;29;20520;-62
2023/07/07 00:03:16;;;;;;;4.38;1.60;;;;;;;22.30;41.80;101630.81;4918001;29;20527;-62
2023/07/07 00:05:42;;;;;;;3.13;1.95;;;;;;;22.25;41.63;101631.38;4940344;29;20111;-62
2023/07/07 00:08:08;;;;;;;5.47;1.85;;;;;;;22.24;41.58;101632.41;4956205;29;20044;-63
2023/07/07 00:10:33;;;;;;;2.83;1.55;;;;;;;22.23;41.56;101638.91;4955964;29;20039;-62
2023/07/07 00:12:59;;;;;;;5.47;1.70;;;;;;;22.19;42.47;101650.38;4956824;29;20047;-62
2023/07/07 00:15:24;;;;;;;3.17;1.42;;;;;;;22.15;42.35;101638.97;4958064;29;20061;-62
2023/07/07 00:17:50;;;;;;;7.65;1.90;;;;;;;22.12;42.68;101636.63;4942554;29;20035;-63
2023/07/07 00:20:15;;;;;;;5.95;1.73;;;;;;;22.08;42.07;101635.31;4956535;29;20063;-62
2023/07/07 00:22:41;;;;;;;2.55;1.50;;;;;;;22.07;42.41;101636.31;4956126;28;20032;-62
2023/07/07 00:25:07;;;;;;;3.17;1.55;;;;;;;22.04;42.44;101639.44;4923991;29;20447;-62
2023/07/07 00:27:33;;;;;;;6.72;1.88;;;;;;;22.01;42.43;101631.59;4939560;29;20035;-62
2023/07/07 00:29:58;;;;;;;4.00;1.77;;;;;;;21.98;42.59;101631.97;4939653;29;20521;-62
2023/07/07 00:32:23;;;;;;;2.45;1.45;;;;;;;21.94;42.54;101630.66;4955989;29;20135;-62
2023/07/07 00:34:49;;;;;;;3.40;1.63;;;;;;;21.90;42.05;101634.75;4955886;29;20079;-62
2023/07/07 00:37:14;;;;;;;3.22;2.03;;;;;;;21.84;42.70;101636.31;4955559;29;20106;-62
2023/07/07 00:39:40;;;;;;;6.68;2.65;;;;;;;21.82;42.79;101634.81;4956264;29;20109;-63
2023/07/07 00:42:06;;;;;;;2.97;1.80;;;;;;;21.78;42.25;101631.59;4955677;28;20039;-62
2023/07/07 00:45:05;;;;;;;4.55;2.75;;;;;;;21.74;42.88;101643.06;4956790;28;20035;-62
2023/07/07 00:47:31;;;;;;;3.40;1.33;;;;;;;21.69;42.60;101631.84;4956985;28;20035;-63
2023/07/07 00:49:57;;;;;;;4.40;1.85;;;;;;;21.65;42.76;101631.34;4939609;28;20042;-63
2023/07/07 00:52:22;;;;;;;3.97;1.83;;;;;;;21.63;43.14;101635.28;4955610;28;20035;-63
2023/07/07 00:54:48;;;;;;;4.05;1.42;;;;;;;21.60;42.70;101638.38;4955436;29;20035;-63
2023/07/07 00:57:13;;;;;;;7.75;1.70;;;;;;;21.58;42.58;101641.28;4939302;29;20036;-62
2023/07/07 00:59:41;;;;;;;1.33;1.08;;;;;;;21.52;43.43;101624.81;4955566;28;20110;-62
2023/07/07 01:02:14;;;;;;;2.40;1.30;;;;;;;21.51;43.48;101631.28;4939208;28;20035;-62
2023/07/07 01:04:43;;;;;;;2.22;1.55;;;;;;;21.52;42.84;101638.44;4953530;28;20049;-63
2023/07/07 01:07:13;;;;;;;2.70;1.88;;;;;;;21.47;43.46;101633.50;4955183;28;20035;-62
2023/07/07 01:09:39;;;;;;;3.40;2.00;;;;;;;21.46;42.72;101643.59;4955176;28;20042;-63
2023/07/07 01:12:11;;;;;;;2.55;1.60;;;;;;;21.44;43.21;101640.16;4955039;28;20028;-62
2023/07/07 01:14:37;;;;;;;5.38;2.25;;;;;;;21.41;43.57;101647.88;4938748;28;20032;-62
2023/07/07 01:17:17;;;;;;;7.82;1.77;;;;;;;21.39;43.26;101641.75;4938897;29;20043;-63
2023/07/07 01:20:00;;;;;;;2.28;1.58;;;;;;;21.36;43.53;101648.41;4954826;28;20038;-63
2023/07/07 01:22:44;;;;;;;;;;;;;;;21.34;42.81;101655.06;4955327;29;20036;-62
2023/07/07 01:25:22;;;;;;;2.92;1.80;;;;;;;21.29;43.44;101655.63;4955930;28;19941;-63
2023/07/07 01:28:11;;;;;;;6.18;1.42;;;;;;;21.26;43.89;101647.78;4954885;28;20027;-62
2023/07/07 01:30:55;;;;;;;6.07;1.95;;;;;;;21.23;43.72;101644.56;4955893;28;20031;-62
2023/07/07 01:33:23;;;;;;;2.92;1.90;;;;;;;21.20;43.09;101645.78;4954814;29;20031;-63
2023/07/07 01:35:49;;;;;;;2.10;1.45;;;;;;;21.17;43.56;101643.41;4954648;28;20522;-62
2023/07/07 01:38:31;;;;;;;3.13;1.33;;;;;;;21.15;44.09;101645.47;4922764;29;20031;-62
2023/07/07 01:41:23;;;;;;;5.72;2.28;;;;;;;21.12;43.28;101645.81;4954171;28;20051;-62
2023/07/07 01:43:51;;;;;;;4.25;1.55;;;;;;;21.09;43.87;101657.06;4954244;29;20043;-62
2023/07/07 01:46:19;;;;;;;3.03;1.95;;;;;;;21.06;43.95;101651.09;4954122;29;20042;-63
2023/07/07 01:48:48;;;;;;;3.60;1.90;;;;;;;21.05;43.72;101650.22;4955415;28;20043;-62
2023/07/07 01:51:15;;;;;;;1.85;1.52;;;;;;;21.01;43.32;101638.00;4955667;28;20395;-62
2023/07/07 01:53:41;;;;;;;7.00;2.88;;;;;;;21.01;43.66;101643.47;4970416;28;20058;-64
2023/07/07 01:56:07;;;;;;;2.80;1.80;;;;;;;20.98;44.27;101646.53;4954790;29;20507;-63
2023/07/07 01:58:33;;;;;;;3.17;1.83;;;;;;;20.93;43.61;101640.78;4954783;29;20046;-62
2023/07/07 02:00:59;;;;;;;6.03;1.58;;;;;;;20.89;44.23;101639.41;4938326;29;20407;-62
2023/07/07 02:03:26;;;;;;;2.50;1.35;;;;;;;20.89;44.21;101644.84;4938160;29;20028;-62
2023/07/07 02:05:52;;;;;;;2.72;1.30;;;;;;;20.87;44.37;101641.47;4954260;29;20054;-62
2023/07/07 02:08:17;;;;;;;2.50;1.52;;;;;;;20.86;44.24;101642.47;4954253;29;20448;-62
2023/07/07 02:10:42;;;;;;;3.75;1.70;;;;;;;20.81;43.89;101632.13;4955724;28;20047;-63
2023/07/07 02:13:08;;;;;;;2.17;1.50;;;;;;;20.76;44.36;101634.53;4939300;29;20424;-63
2023/07/07 02:15:33;;;;;;;4.55;1.75;;;;;;;20.75;44.23;101637.41;4953870;28;20028;-63
2023/07/07 02:17:59;;;;;;;6.05;1.58;;;;;;;20.72;43.95;101637.75;4934815;29;20127;-62
2023/07/07 02:20:24;;;;;;;5.93;1.60;;;;;;;20.67;43.94;101629.28;4942297;29;20027;-63
2023/07/07 02:22:50;;;;;;;2.38;2.00;;;;;;;20.66;43.68;101643.94;4953903;29;20126;-63
2023/07/07 02:25:15;;;;;;;3.03;1.50;;;;;;;20.63;43.87;101639.66;4953813;28;20078;-62
2023/07/07 02:27:41;;;;;;;3.13;1.60;;;;;;;20.61;44.30;101635.41;4953794;29;20034;-62
2023/07/07 02:30:07;;;;;;;2.85;1.90;;;;;;;20.61;43.66;101636.28;4954898;28;20035;-62
2023/07/07 02:32:32;;;;;;;7.85;2.25;;;;;;;20.60;43.96;101640.00;4937660;29;20054;-63
2023/07/07 02:34:58;;;;;;;4.22;1.63;;;;;;;20.56;44.09;101626.94;4953646;28;20115;-62
2023/07/07 02:37:24;;;;;;;4.65;1.85;;;;;;;20.53;44.42;101639.03;4921783;29;20098;-63
2023/07/07 02:39:50;;;;;;;4.82;1.75;;;;;;;20.53;44.25;101638.16;4969719;28;20043;-62
2023/07/07 02:42:15;;;;;;;2.30;1.42;;;;;;;20.50;44.31;101639.38;4953634;29;20138;-63
2023/07/07 02:44:41;;;;;;;4.50;1.80;;;;;;;20.46;44.11;101631.72;4937578;29;20114;-62
2023/07/07 02:47:08;;;;;;;3.45;1.75;;;;;;;20.46;43.87;101637.19;4953656;29;20031;-62
2023/07/07 02:49:33;;;;;;;4.38;2.13;;;;;;;20.42;43.97;101635.81;4953385;29;20667;-62
2023/07/07 02:51:59;;;;;;;3.60;2.17;;;;;;;20.42;44.56;101643.97;4937579;29;20027;-62
2023/07/07 02:54:25;;;;;;;2.80;1.85;;;;;;;20.39;44.38;101637.00;4937633;29;20027;-62
2023/07/07 02:56:50;;;;;;;5.18;2.10;;;;;;;20.39;44.16;101636.16;4953480;29;20035;-62
2023/07/07 02:59:16;;;;;;;5.40;1.95;;;;;;;20.38;44.36;101640.75;4937370;29;20035;-63
2023/07/07 03:01:43;;;;;;;2.65;1.40;;;;;;;20.36;44.17;101647.38;4953378;29;20034;-63
2023/07/07 03:04:10;;;;;;;3.95;2.00;;;;;;;20.32;44.37;101647.72;4953326;28;20035;-63
2023/07/07 03:06:37;;;;;;;3.55;2.05;;;;;;;20.30;44.12;101649.78;4953618;29;20503;-63
2023/07/07 03:09:04;;;;;;;3.75;1.80;;;;;;;20.28;44.55;101650.97;4954762;28;20518;-63
2023/07/07 03:11:30;;;;;;;3.67;1.83;;;;;;;20.25;44.32;101644.00;4937432;29;20040;-62
2023/07/07 03:13:56;;;;;;;4.50;1.92;;;;;;;20.24;44.70;101650.47;4937392;29;20122;-62
2023/07/07 03:16:27;;;;;;;2.92;1.88;;;;;;;20.21;44.97;101645.31;4953423;29;20126;-62
2023/07/07 03:18:55;;;;;;;4.80;1.83;;;;;;;20.18;44.60;101637.50;4922147;29;20071;-62
2023/07/07 03:21:22;;;;;;;2.97;1.60;;;;;;;20.14;44.95;101644.34;4953322;29;20035;-62
2023/07/07 03:23:50;;;;;;;5.05;2.00;;;;;;;20.14;44.47;101641.59;4969549;28;20392;-63
2023/07/07 03:26:17;;;;;;;3.25;1.95;;;;;;;20.14;44.83;101649.78;4954889;28;20043;-62
2023/07/07 03:28:43;;;;;;;2.47;1.38;;;;;;;20.13;44.79;101649.94;4941390;29;20040;-62
2023/07/07 03:31:12;;;;;;;2.45;1.70;;;;;;;20.13;45.21;101658.94;4941049;29;20054;-63
2023/07/07 03:33:39;;;;;;;3.55;1.98;;;;;;;20.12;44.89;101651.81;4956872;29;20046;-62
2023/07/07 03:36:05;;;;;;;4.00;2.00;;;;;;;20.12;45.22;101640.94;4940669;29;20048;-63
2023/07/07 03:38:31;;;;;;;3.25;1.67;;;;;;;20.12;45.01;101646.38;4956731;28;20023;-62
2023/07/07 03:40:56;;;;;;;6.50;2.17;;;;;;;20.11;44.28;101649.25;4940737;29;20035;-62
2023/07/07 03:43:22;;;;;;;4.07;1.85;;;;;;;20.09;44.92;101656.75;4956690;29;20048;-62
2023/07/07 03:45:47;;;;;;;3.78;1.50;;;;;;;20.07;45.16;101654.19;4940783;29;20500;-63
2023/07/07 03:48:13;;;;;;;4.05;2.00;;;;;;;20.07;44.59;101651.47;4955524;29;20380;-63
2023/07/07 03:50:38;;;;;;;2.47;1.88;;;;;;;20.04;45.30;101654.56;4940632;29;20051;-63
2023/07/07 03:53:04;;;;;;;5.35;1.85;;;;;;;20.05;45.25;101650.78;4924695;29;20035;-62
2023/07/07 03:55:29;;;;;;;3.53;1.65;;;;;;;20.08;45.06;101655.88;4956612;29;20046;-62
2023/07/07 03:57:55;;;;;;;4.95;1.60;;;;;;;20.09;45.04;101656.75;4937259;29;20401;-63
2023/07/07 04:00:21;;;;;;;6.88;1.80;;;;;;;20.08;45.05;101655.88;4953036;28;20035;-62
2023/07/07 04:02:46;;;;;;;6.93;2.50;;;;;;;20.08;45.24;101655.88;4956567;29;20038;-63
2023/07/07 04:05:11;;;;;;;6.47;2.20;;;;;;;20.10;45.12;101658.47;4957412;28;20059;-63
2023/07/07 04:07:37;;;;;;;5.22;1.85;;;;;;;20.10;45.17;101662.00;4956326;29;20086;-63
2023/07/07 04:10:03;;;;;;;6.78;2.10;;;;;;;20.11;45.39;101671.03;4956062;29;20422;-63
2023/07/07 04:12:31;;;;;;;3.53;2.13;;;;;;;20.11;45.57;101666.44;4940113;29;20517;-62
2023/07/07 04:14:58;;;;;;;3.95;2.17;;;;;;;20.12;44.94;101668.16;4957439;28;20411;-63
2023/07/07 04:17:23;;;;;;;8.13;2.15;;;;;;;20.15;45.44;101667.81;4956174;29;20035;-62
2023/07/07 04:19:49;;;;;;;6.43;2.20;;;;;;;20.16;45.62;101663.19;4956196;29;20035;-62
2023/07/07 04:22:14;;;;;;;6.80;2.15;;;;;;;20.17;45.42;101663.03;4924167;29;20039;-63
2023/07/07 04:24:40;;;;;;;4.13;2.45;;;;;;;20.21;45.47;101661.66;4956276;29;20073;-63
2023/07/07 04:27:05;;;;;;;3.58;1.75;;;;;;;20.30;45.42;101660.66;4972156;28;20586;-63
2023/07/07 04:29:31;;;;;;;7.22;2.13;;;;;;;20.39;45.46;101657.94;4939715;29;20095;-62
2023/07/07 04:31:56;;;;;;;7.22;2.10;;;;;;;20.47;45.20;101656.03;4940027;29;20064;-63
2023/07/07 04:34:22;;;;;;;4.30;1.88;;;;;;;20.55;45.45;101647.84;4956964;28;20047;-62
2023/07/07 04:36:48;;;;;;;5.75;2.58;;;;;;;20.70;45.46;101656.16;4956782;28;20047;-62
2023/07/07 04:39:14;;;;;;;6.00;2.67;;;;;;;20.80;44.96;101656.81;4954901;28;20046;-63
2023/07/07 04:41:40;;;;;;;7.15;2.25;;;;;;;20.94;44.97;101652.53;4955530;29;20129;-62
2023/07/07 04:44:05;;;;;;;8.00;2.45;;;;;;;21.06;45.31;101651.94;4956907;28;20047;-63
2023/07/07 04:46:38;;;;;;;7.63;2.35;;;;;;;21.19;45.16;101651.41;4955522;29;20035;-63
2023/07/07 04:49:08;;;;;;;9.35;2.30;;;;;;;21.35;45.45;101660.34;4939488;29;20063;-63
2023/07/07 04:51:40;;;;;;;4.10;1.92;;;;;;;21.50;44.81;101659.59;4955680;29;20043;-63
2023/07/07 04:54:09;;;;;;;4.35;1.88;;;;;;;21.63;45.00;101657.09;4939709;29;20027;-62
2023/07/07 04:56:34;;;;;;;10.57;2.42;;;;;;;21.79;44.46;101662.44;4971080;28;20058;-63
2023/07/07 04:59:00;;;;;;;4.13;2.20;;;;;;;21.94;45.44;101657.94;4939280;28;20031;-64
2023/07/07 05:01:27;;;;;;;6.00;1.80;;;;;;;22.09;44.96;101655.22;4954966;28;20377;-63
2023/07/07 05:04:00;;;;;;;8.88;2.10;;;;;;;22.25;45.14;101655.09;4939355;28;20038;-63
2023/07/07 05:06:28;;;;;;;2.50;2.10;;;;;;;22.41;44.46;101653.06;4955211;28;20051;-63
2023/07/07 05:08:53;;;;;;;5.72;2.10;;;;;;;22.57;43.84;101650.16;4955053;28;20031;-62
2023/07/07 05:11:20;;;;;;;6.28;2.60;;;;;;;22.77;44.00;101657.81;4955055;28;20506;-63
2023/07/07 05:13:47;;;;;;;3.58;2.50;;;;;;;22.92;44.22;101655.94;4956330;28;20027;-63
2023/07/07 05:16:16;;;;;;;7.32;1.90;;;;;;;23.09;43.29;101655.53;4939047;28;20054;-62
2023/07/07 05:18:41;;;;;;;3.35;1.67;;;;;;;23.26;43.92;101661.63;4954970;28;20510;-62
2023/07/07 05:21:09;;;;;;;3.13;1.63;;;;;;;23.41;43.67;101656.19;4955126;28;20039;-64
2023/07/07 05:23:35;;;;;;;3.20;1.65;;;;;;;23.60;43.71;101659.13;4954886;29;20031;-64
2023/07/07 05:26:01;;;;;;;3.05;1.83;;;;;;;23.77;43.21;101651.53;4954844;28;20574;-64
2023/07/07 05:28:27;;;;;;;4.63;2.22;;;;;;;23.95;43.03;101651.94;4922811;29;20035;-63
2023/07/07 05:30:53;;;;;;;6.30;1.75;;;;;;;24.13;42.94;101648.72;4970812;28;20046;-63
2023/07/07 05:33:20;;;;;;;2.67;1.88;;;;;;;24.30;43.21;101650.13;4954248;28;20027;-63
2023/07/07 05:35:53;;;;;;;3.63;2.00;;;;;;;24.46;42.75;101654.44;4937325;29;20045;-63
2023/07/07 05:38:22;;;;;;;6.05;1.90;;;;;;;24.63;42.38;101648.47;4955584;28;20023;-62
2023/07/07 05:40:47;;;;;;;6.22;1.73;;;;;;;24.80;42.36;101646.28;4954383;29;20031;-62
2023/07/07 05:43:13;;;;;;;5.45;2.17;;;;;;;24.99;42.38;101655.66;4954309;28;20372;-62
2023/07/07 05:45:39;;;;;;;2.60;2.05;;;;;;;25.17;41.74;101659.56;4954277;29;20054;-62
2023/07/07 05:48:05;;;;;;;4.10;1.77;;;;;;;25.37;41.50;101665.13;4954238;29;20499;-62
2023/07/07 05:50:30;;;;;;;4.95;1.75;;;;;;;25.56;41.08;101664.38;4938373;29;20049;-62
2023/07/07 05:52:56;;;;;;;10.30;1.90;;;;;;;25.76;41.18;101661.69;4955652;28;20567;-63
2023/07/07 05:55:28;;;;;;;3.70;1.70;;;;;;;25.99;40.93;101662.16;4955359;28;20039;-63
2023/07/07 05:57:54;;;;;;;3.15;1.35;;;;;;;26.22;40.69;101651.59;4938182;29;20043;-62
2023/07/07 06:00:20;;;;;;;7.07;1.63;;;;;;;26.47;40.85;101662.78;4953851;29;20039;-63
2023/07/07 06:02:45;;;;;;;4.88;1.70;;;;;;;26.69;40.06;101664.22;4955287;28;20412;-63
2023/07/07 06:05:11;;;;;;;5.35;2.10;;;;;;;26.88;40.51;101665.31;4954316;29;20031;-63
2023/07/07 06:07:36;;;;;;;6.63;2.15;;;;;;;27.07;39.97;101659.75;4934788;29;20447;-63
2023/07/07 06:10:02;;;;;;;5.22;1.65;;;;;;;27.26;39.95;101657.09;4943511;28;20041;-63
2023/07/07 06:12:28;;;;;;;7.05;1.70;;;;;;;27.46;38.84;101667.00;4953940;29;20114;-62
2023/07/07 06:14:53;;;;;;;7.22;2.03;;;;;;;27.65;39.50;101666.06;4937588;29;20127;-62
2023/07/07 06:17:19;;;;;;;3.92;1.65;;;;;;;27.86;38.49;101662.13;4955007;28;20047;-62
2023/07/07 06:19:44;;;;;;;6.72;1.58;;;;;;;28.05;39.11;101672.19;4953686;29;20127;-62
2023/07/07 06:22:09;;;;;;;2.92;1.77;;;;;;;28.21;39.18;101662.50;4937826;29;20051;-62
2023/07/07 06:24:35;;;;;;;2.90;1.77;;;;;;;28.39;38.31;101661.72;4953738;29;20071;-62
2023/07/07 06:27:00;;;;;;;5.28;1.70;;;;;;;28.56;38.13;101662.84;4953544;28;20035;-63
2023/07/07 06:29:25;;;;;;;5.80;1.25;;;;;;;28.74;38.25;101665.63;4937610;29;20422;-62
2023/07/07 06:31:51;;;;;;;6.88;1.80;;;;;;;28.89;37.58;101660.59;4954761;29;20125;-63
2023/07/07 06:34:16;;;;;;;4.82;1.48;;;;;;;29.12;37.09;101668.19;4956386;28;20039;-64
2023/07/07 06:36:41;;;;;;;9.23;2.95;;;;;;;29.30;37.66;101673.72;4957150;28;20525;-64
2023/07/07 06:39:07;;;;;;;10.18;2.03;;;;;;;29.50;37.17;101668.78;4971935;28;20046;-62
2023/07/07 06:41:32;;;;;;;7.38;2.67;;;;;;;29.70;37.08;101669.34;4939137;29;20447;-64
2023/07/07 06:43:57;;;;;;;5.72;1.65;;;;;;;29.87;36.91;101675.91;4953949;28;20063;-62
2023/07/07 06:46:25;;;;;;;3.28;1.67;;;;;;;30.07;36.50;101678.34;4953838;28;20040;-62
2023/07/07 06:48:50;;;;;;;12.02;1.55;;;;;;;30.26;36.89;101677.22;4953589;28;20031;-62
2023/07/07 06:51:16;;;;;;;3.40;2.03;;;;;;;30.48;36.45;101678.34;4953164;28;20094;-62
2023/07/07 06:53:41;;;;;;;8.80;2.33;;;;;;;30.69;36.26;101676.03;4937376;28;20037;-62
2023/07/07 06:56:07;;;;;;;3.08;1.50;;;;;;;30.90;36.42;101669.91;4953419;28;20122;-62
2023/07/07 06:58:33;;;;;;;4.22;1.30;;;;;;;31.10;35.99;101670.41;4937341;28;20043;-62
2023/07/07 07:00:59;;;;;;;4.28;1.45;;;;;;;31.29;35.56;101669.13;4954194;28;20384;-64
2023/07/07 07:03:24;;;;;;;4.63;1.75;;;;;;;31.49;35.89;101672.31;4957490;28;20454;-62
2023/07/07 07:05:50;;;;;;;5.13;1.52;;;;;;;31.69;35.50;101669.97;4941645;28;20027;-62
2023/07/07 07:08:15;;;;;;;5.95;2.33;;;;;;;31.92;35.38;101674.53;4941085;29;20031;-62
2023/07/07 07:10:40;;;;;;;5.30;2.13;;;;;;;32.13;35.59;101676.59;4957396;28;20075;-64
2023/07/07 07:13:08;;;;;;;8.45;1.80;;;;;;;32.33;35.33;101676.09;4958408;28;20039;-63
2023/07/07 07:15:33;;;;;;;5.18;1.60;;;;;;;32.52;34.82;101669.22;4957019;28;20050;-62
2023/07/07 07:17:59;;;;;;;3.88;1.27;;;;;;;32.72;34.63;101669.53;4958302;28;20047;-62
2023/07/07 07:20:24;;;;;;;3.25;1.42;;;;;;;32.93;34.88;101669.84;4941099;29;20031;-62
2023/07/07 07:22:50;;;;;;;4.57;1.33;;;;;;;33.10;34.46;101671.50;4941254;28;20031;-62
2023/07/07 07:25:16;;;;;;;2.58;1.52;;;;;;;33.31;32.98;101667.03;4941114;29;20381;-62
2023/07/07 07:27:41;;;;;;;3.47;1.52;;;;;;;33.46;33.65;101670.00;4958239;28;20038;-63
2023/07/07 07:30:07;;;;;;;2.17;1.17;;;;;;;33.65;34.11;101670.50;4925282;29;20575;-62
2023/07/07 07:32:33;;;;;;;3.40;1.63;;;;;;;33.81;32.42;101667.63;4941021;29;20036;-62
2023/07/07 07:34:59;;;;;;;5.18;2.15;;;;;;;34.00;33.37;101664.47;4957134;28;20523;-62
2023/07/07 07:37:25;;;;;;;3.53;1.20;;;;;;;34.19;32.38;101668.56;4956936;28;20075;-62
2023/07/07 07:39:52;;;;;;;2.75;1.90;;;;;;;34.38;33.04;101665.13;4941048;28;20511;-62
2023/07/07 07:42:17;;;;;;;4.75;1.95;;;;;;;34.51;32.40;101661.00;4957037;28;20043;-62
2023/07/07 07:44:42;;;;;;;3.10;1.42;;;;;;;34.67;32.11;101670.38;4959422;28;20414;-62
2023/07/07 07:47:08;;;;;;;1.95;1.13;;;;;;;34.88;31.97;101667.41;4957521;28;20499;-62
2023/07/07 07:49:33;;;;;;;1.63;1.48;;;;;;;35.00;31.93;101676.41;4958361;28;20048;-62
2023/07/07 07:51:59;;;;;;;3.17;1.50;;;;;;;35.15;31.78;101672.06;4940647;29;20066;-62
2023/07/07 07:54:25;;;;;;;4.05;1.15;;;;;;;35.34;31.16;101674.09;4940540;29;20411;-63
2023/07/07 07:56:50;;;;;;;3.20;1.25;;;;;;;35.52;30.69;101669.94;4957930;28;20094;-62
2023/07/07 07:59:16;;;;;;;3.72;1.52;;;;;;;35.69;30.70;101675.31;4956839;28;20035;-62
2023/07/07 08:01:42;;;;;;;2.65;1.38;;;;;;;35.85;30.68;101675.06;4956440;28;20049;-62
2023/07/07 08:04:08;;;;;;;3.08;1.80;;;;;;;35.96;30.41;101673.97;4956249;28;20051;-64
2023/07/07 08:06:33;;;;;;;6.18;2.15;;;;;;;36.10;30.10;101675.13;4957290;28;20069;-64
2023/07/07 08:08:59;;;;;;;4.90;1.73;;;;;;;36.25;29.98;101676.25;4957362;28;20062;-64
2023/07/07 08:11:47;;;;;;;3.67;1.40;;;;;;;36.39;29.82;101669.81;4940080;29;20415;-61
2023/07/07 08:14:15;;;;;;;1.40;1.02;;;;;;;36.50;29.34;101677.09;4956422;28;20047;-62
2023/07/07 08:16:40;;;;;;;4.10;1.30;;;;;;;36.56;29.61;101670.41;4957343;28;20044;-62
2023/07/07 08:19:06;;;;;;;3.45;1.58;;;;;;;36.66;29.52;101666.72;4952419;29;20031;-62
2023/07/07 08:21:31;;;;;;;3.85;1.30;;;;;;;36.81;28.97;101669.50;4971942;28;20039;-62
2023/07/07 08:23:57;;;;;;;2.25;1.40;;;;;;;36.94;28.87;101668.91;4940329;28;20043;-62
2023/07/07 08:26:23;;;;;;;6.15;1.70;;;;;;;37.12;29.06;101670.28;4920852;29;20035;-62
2023/07/07 08:28:48;;;;;;;3.53;1.23;;;;;;;37.29;28.29;101668.81;4949228;28;20492;-62
2023/07/07 08:31:13;;;;;;;4.90;1.40;;;;;;;37.41;27.96;101667.63;4937864;29;20039;-64
2023/07/07 08:33:43;;;;;;;5.40;1.90;;;;;;;37.54;28.30;101670.66;4937783;28;20039;-62
2023/07/07 08:36:09;;;;;;;3.72;1.08;;;;;;;37.58;27.29;101673.72;4935509;28;20051;-62
2023/07/07 08:38:34;;;;;;;5.07;1.27;;;;;;;37.62;27.29;101666.41;4934849;28;20476;-63
2023/07/07 08:41:01;;;;;;;3.35;2.00;;;;;;;37.73;27.93;101666.06;4904700;28;20091;-63
2023/07/07 08:43:29;;;;;;;4.30;1.30;;;;;;;37.81;27.46;101665.44;4937881;28;20031;-63
2023/07/07 08:46:16;;;;;;;2.83;1.15;;;;;;;37.89;27.27;101666.81;4920823;28;20488;-64
2023/07/07 08:49:08;;;;;;;2.78;1.02;;;;;;;37.94;27.68;101655.59;4936348;28;20046;-63
2023/07/07 08:51:37;;;;;;;2.72;1.15;;;;;;;38.08;27.52;101673.38;4937173;28;20032;-62
2023/07/07 08:54:08;;;;;;;4.80;1.45;;;;;;;38.24;27.28;101671.31;4936276;28;20054;-63
2023/07/07 08:56:51;;;;;;;4.20;1.42;;;;;;;38.45;26.92;101673.66;4935343;28;20099;-63
2023/07/07 08:59:31;;;;;;;1.23;1.13;;;;;;;38.62;27.23;101662.00;4937604;28;20047;-63
2023/07/07 09:02:32;;;;;;;2.75;1.80;;;;;;;38.75;25.95;101661.28;4937404;28;20511;-62
2023/07/07 09:05:03;;;;;;;2.58;0.98;;;;;;;38.94;25.92;101670.66;4925761;29;20511;-63
2023/07/07 09:07:44;;;;;;;3.33;1.30;;;;;;;39.10;25.64;101659.22;4937180;28;20113;-62
2023/07/07 09:10:33;;;;;;;2.72;1.30;;;;;;;39.26;25.44;101655.97;4954628;28;20503;-63
2023/07/07 09:13:17;;;;;;;3.83;1.10;;;;;;;39.43;25.08;101664.69;4954928;28;20419;-63
2023/07/07 09:15:48;;;;;;;5.15;1.02;;;;;;;39.55;25.09;101665.09;4942838;28;20427;-62
2023/07/07 09:18:23;;;;;;;1.67;0.93;;;;;;;39.75;24.82;101663.16;4947159;28;20046;-62
2023/07/07 09:20:55;;;;;;;2.40;0.90;;;;;;;39.83;24.21;101659.66;4920380;29;20421;-62
2023/07/07 09:23:23;;;;;;;3.42;1.08;;;;;;;39.90;23.51;101660.09;4935891;28;20028;-62
2023/07/07 09:26:02;;;;;;;3.83;1.17;;;;;;;40.07;23.82;101666.03;4936891;28;20032;-63
2023/07/07 09:28:32;;;;;;;4.38;1.20;;;;;;;40.14;23.76;101663.66;4935596;28;20028;-62
2023/07/07 09:31:08;;;;;;;1.30;0.88;;;;;;;40.20;23.29;101656.84;4919656;29;20518;-64
2023/07/07 09:33:34;;;;;;;1.65;1.10;;;;;;;40.26;23.24;101652.75;4935574;28;20567;-62
2023/07/07 09:36:05;;;;;;;2.90;0.95;;;;;;;40.30;22.59;101648.22;4919768;28;20127;-62
2023/07/07 09:38:49;;;;;;;4.18;1.25;;;;;;;40.37;23.17;101659.06;4919787;29;20051;-63
2023/07/07 09:41:31;;;;;;;1.55;1.00;;;;;;;40.37;23.17;101653.44;4936663;28;20032;-62
2023/07/07 09:44:19;;;;;;;2.90;1.13;;;;;;;40.36;22.50;101658.22;4954187;28;20055;-63
2023/07/07 09:46:54;;;;;;;2.08;1.20;;;;;;;40.33;22.76;101653.22;4954486;28;20043;-63
2023/07/07 09:49:28;;;;;;;1.52;1.10;;;;;;;40.37;22.69;101654.25;4955406;28;20039;-63
2023/07/07 09:52:10;;;;;;;4.03;1.45;;;;;;;40.43;22.61;101653.03;4938085;29;20046;-63
2023/07/07 09:54:36;;;;;;;2.90;1.63;;;;;;;40.53;22.06;101646.41;4954094;28;20031;-63
2023/07/07 09:57:05;;;;;;;2.63;1.33;;;;;;;40.62;22.01;101642.56;4954322;28;20035;-62
2023/07/07 09:59:36;;;;;;;2.40;1.10;;;;;;;40.78;21.75;101642.28;4954278;28;20130;-62
2023/07/07 10:02:03;;;;;;;2.75;1.20;;;;;;;41.00;21.71;101640.44;4953981;28;20035;-62
2023/07/07 10:04:48;;;;;;;2.63;2.42;;;;;;;41.46;21.68;101648.72;4954082;28;20035;-63
2023/07/07 10:07:15;;;;;;;42.03;40.20;;;;;;;42.04;20.99;101642.28;4953977;28;20046;-63
2023/07/07 10:09:42;;;;;;;112.75;107.15;;;;;;;42.82;20.52;101635.97;4954001;28;20562;-63
2023/07/07 10:12:10;;;;;;;27.45;26.17;;;;;;;43.93;20.36;101633.38;4938067;29;20039;-63
2023/07/07 10:14:37;;;;;;;3.67;1.92;;;;;;;45.24;19.12;101632.59;4969954;28;20043;-63
2023/07/07 10:17:08;;;;;;;1.35;1.25;;;;;;;46.35;18.29;101628.03;4953891;28;20082;-62
2023/07/07 10:19:53;;;;;;;1.65;1.55;;;;;;;46.38;18.03;101632.97;4952808;28;20127;-65
2023/07/07 10:22:20;;;;;;;1.73;1.30;;;;;;;45.83;18.82;101631.38;4953775;28;20043;-63
2023/07/07 10:24:45;;;;;;;2.95;1.50;;;;;;;45.40;18.93;101630.88;4953776;28;20499;-63
2023/07/07 10:27:22;;;;;;;2.38;2.20;;;;;;;44.92;19.20;101637.00;4969666;28;20078;-63
2023/07/07 10:29:49;;;;;;;4.70;1.98;;;;;;;44.58;19.37;101632.28;4953018;28;20054;-62
2023/07/07 10:32:24;;;;;;;7.72;7.13;;;;;;;44.39;19.26;101623.34;4953639;28;20038;-63
2023/07/07 10:34:54;;;;;;;3.45;2.33;;;;;;;44.17;19.32;101632.06;4953529;28;20492;-62
2023/07/07 10:37:22;;;;;;;2.47;2.25;;;;;;;44.10;19.25;101621.22;4952986;28;20110;-62
2023/07/07 10:39:52;;;;;;;2.60;2.40;;;;;;;44.20;18.59;101625.75;4953606;28;20475;-63
2023/07/07 10:42:20;;;;;;;5.93;5.07;;;;;;;44.18;19.11;101630.88;4969495;28;20043;-63
2023/07/07 10:44:45;;;;;;;3.97;2.63;;;;;;;44.22;18.80;101623.41;4937757;29;20049;-63
2023/07/07 10:47:10;;;;;;;2.97;2.75;;;;;;;44.35;19.33;101625.19;4937775;29;20055;-62
2023/07/07 10:49:36;;;;;;;3.63;2.42;;;;;;;44.42;19.18;101622.69;4953405;28;20061;-62
2023/07/07 10:52:26;;;;;;;5.22;2.33;;;;;;;44.52;18.64;101619.50;4937650;29;20078;-62
2023/07/07 10:55:07;;;;;;;3.78;3.47;;;;;;;44.68;18.63;101620.59;4953088;28;20578;-62
2023/07/07 10:57:54;;;;;;;3.45;2.28;;;;;;;44.76;18.87;101625.38;4954834;28;20040;-62
2023/07/07 11:00:26;;;;;;;5.25;4.68;;;;;;;44.89;18.57;101615.88;4955055;28;20083;-63
2023/07/07 11:03:12;;;;;;;3.53;2.92;;;;;;;45.05;18.33;101619.75;4954920;28;20039;-63
2023/07/07 11:05:46;;;;;;;5.70;4.05;;;;;;;45.21;17.88;101610.66;4954598;28;20073;-63
2023/07/07 11:08:32;;;;;;;3.50;2.08;;;;;;;45.33;18.03;101605.09;4953926;28;20062;-63
2023/07/07 11:11:17;;;;;;;4.78;2.22;;;;;;;45.45;18.14;101605.19;4953032;28;20083;-63
2023/07/07 11:14:21;;;;;;;2.72;2.42;;;;;;;45.50;17.96;101607.81;4954463;28;20035;-63
2023/07/07 11:17:01;;;;;;;7.47;2.47;;;;;;;45.56;17.73;101606.44;4954535;28;20035;-63
2023/07/07 11:19:26;;;;;;;5.57;2.40;;;;;;;45.61;18.32;101600.53;4953202;28;20087;-63
2023/07/07 11:22:00;;;;;;;2.50;1.50;;;;;;;45.64;18.23;101599.84;4953268;28;20035;-63
2023/07/07 11:24:29;;;;;;;2.90;1.67;;;;;;;45.69;18.11;101599.66;4953314;28;20499;-63
2023/07/07 11:27:16;;;;;;;4.57;1.77;;;;;;;45.69;17.72;101603.31;4954492;28;20035;-63
2023/07/07 11:29:50;;;;;;;3.10;1.85;;;;;;;45.65;17.94;101598.69;4953186;28;20042;-63
2023/07/07 11:32:28;;;;;;;4.05;1.60;;;;;;;45.58;17.69;101604.06;4953191;28;20027;-63